createdAt,value
2018-01-11T00:00:53.671Z,13.10
2018-01-11T00:03:21.313Z,13.80
2018-01-11T00:05:48.904Z,13.13
2018-01-11T00:08:16.528Z,11.70
2018-01-11T00:10:44.108Z,11.87
2018-01-11T00:13:12.460Z,13.30
2018-01-11T00:15:40.040Z,12.80
2018-01-11T00:18:07.640Z,12.63
2018-01-11T00:20:35.259Z,13.33
2018-01-11T00:23:03.635Z,14.20
2018-01-11T00:25:31.253Z,12.63
2018-01-11T00:27:58.849Z,11.80
2018-01-11T00:30:26.441Z,13.73
2018-01-11T00:32:54.047Z,13.63
2018-01-11T00:35:21.629Z,13.67
2018-01-11T00:37:49.236Z,12.80
2018-01-11T00:40:28.192Z,13.00
2018-01-11T00:42:55.821Z,12.27
2018-01-11T00:45:23.404Z,12.67
2018-01-11T00:47:50.994Z,12.80
2018-01-11T00:50:18.592Z,12.67
2018-01-11T00:52:46.941Z,12.50
2018-01-11T00:55:14.531Z,14.00
2018-01-11T00:57:42.894Z,13.40
2018-01-11T01:00:10.513Z,12.67
2018-01-11T01:02:38.092Z,13.53
2018-01-11T01:05:05.694Z,13.20
2018-01-11T01:07:33.308Z,14.30
2018-01-11T01:10:00.908Z,14.40
2018-01-11T01:12:29.276Z,14.10
2018-01-11T01:14:56.864Z,13.67
2018-01-11T01:17:24.480Z,14.70
2018-01-11T01:19:52.068Z,14.17
2018-01-11T01:22:20.412Z,14.40
2018-01-11T01:24:47.984Z,14.90
2018-01-11T01:27:15.595Z,13.13
2018-01-11T01:29:43.201Z,13.43
2018-01-11T01:32:10.779Z,13.20
2018-01-11T01:34:38.390Z,13.47
2018-01-11T01:37:05.970Z,14.53
2018-01-11T01:39:33.556Z,13.40
2018-01-11T01:42:01.137Z,11.87
2018-01-11T01:44:29.489Z,11.50
2018-01-11T01:46:57.092Z,11.30
2018-01-11T01:49:25.435Z,11.00
2018-01-11T01:51:53.170Z,11.40
2018-01-11T01:54:20.756Z,11.47
2018-01-11T01:56:48.359Z,10.17
2018-01-11T01:59:15.951Z,9.43
2018-01-11T02:01:43.529Z,10.10
2018-01-11T02:04:11.143Z,9.97
2018-01-11T02:06:38.737Z,10.80
2018-01-11T02:09:06.362Z,10.10
2018-01-11T02:11:33.944Z,10.17
2018-01-11T02:14:01.529Z,10.53
2018-01-11T02:16:29.113Z,11.70
2018-01-11T02:18:56.688Z,10.53
2018-01-11T02:21:25.066Z,9.43
2018-01-11T02:23:53.443Z,9.63
2018-01-11T02:26:21.052Z,10.50
2018-01-11T02:28:48.641Z,10.30
2018-01-11T02:31:16.229Z,10.63
2018-01-11T02:33:44.595Z,11.07
2018-01-11T02:36:12.191Z,9.83
2018-01-11T02:38:39.809Z,9.23
2018-01-11T02:41:07.412Z,9.70
2018-01-11T02:43:35.035Z,9.10
2018-01-11T02:46:02.635Z,9.90
2018-01-11T02:48:30.225Z,9.57
2018-01-11T02:50:57.819Z,10.40
2018-01-11T02:53:25.434Z,9.53
2018-01-11T02:55:53.058Z,10.57
2018-01-11T02:58:21.415Z,11.37
2018-01-11T03:00:49.042Z,10.93
2018-01-11T03:03:16.634Z,11.30
2018-01-11T03:05:44.230Z,9.87
2018-01-11T03:08:12.595Z,10.90
2018-01-11T03:10:40.187Z,9.33
2018-01-11T03:13:07.804Z,9.47
2018-01-11T03:15:35.384Z,9.83
2018-01-11T03:18:03.786Z,9.57
2018-01-11T03:20:31.377Z,9.97
2018-01-11T03:22:58.978Z,11.03
2018-01-11T03:25:26.566Z,10.53
2018-01-11T03:27:54.925Z,8.80
2018-01-11T03:30:23.315Z,9.43
2018-01-11T03:32:51.669Z,9.73
2018-01-11T03:35:19.290Z,10.60
2018-01-11T03:37:46.884Z,9.53
2018-01-11T03:40:14.495Z,9.43
2018-01-11T03:42:42.078Z,9.03
2018-01-11T03:45:09.676Z,9.80
2018-01-11T03:47:37.275Z,9.50
2018-01-11T03:50:04.874Z,10.00
2018-01-11T03:52:32.489Z,9.90
2018-01-11T03:55:00.882Z,10.00
2018-01-11T03:57:28.447Z,9.63
2018-01-11T03:59:56.030Z,9.07
2018-01-11T04:02:23.626Z,10.37
2018-01-11T04:04:51.243Z,10.27
2018-01-11T04:07:18.838Z,21.67
2018-01-11T04:09:46.462Z,10.83
2018-01-11T04:12:14.058Z,9.50
2018-01-11T04:14:41.642Z,9.73
2018-01-11T04:17:09.996Z,10.00
2018-01-11T04:19:37.595Z,13.83
2018-01-11T04:22:05.996Z,13.23
2018-01-11T04:24:33.608Z,14.43
2018-01-11T04:27:02.188Z,9.80
2018-01-11T04:29:29.791Z,10.80
2018-01-11T04:31:57.364Z,9.73
2018-01-11T04:34:24.940Z,9.87
2018-01-11T04:36:52.516Z,10.40
2018-01-11T04:39:20.133Z,9.83
2018-01-11T04:41:47.717Z,9.37
2018-01-11T04:44:15.336Z,8.83
2018-01-11T04:46:43.699Z,9.10
2018-01-11T04:49:11.337Z,8.87
2018-01-11T04:51:38.933Z,8.90
2018-01-11T04:54:06.523Z,8.50
2018-01-11T04:56:34.134Z,9.90
2018-01-11T04:59:01.721Z,9.97
2018-01-11T05:01:30.115Z,8.83
2018-01-11T05:03:57.709Z,10.03
2018-01-11T05:06:25.302Z,11.87
2018-01-11T05:08:52.970Z,10.60
2018-01-11T05:11:20.561Z,10.70
2018-01-11T05:13:48.928Z,10.60
2018-01-11T05:16:17.284Z,10.87
2018-01-11T05:18:44.914Z,11.53
2018-01-11T05:21:12.496Z,11.73
2018-01-11T05:23:40.080Z,10.73
2018-01-11T05:26:07.689Z,10.50
2018-01-11T05:28:35.286Z,13.63
2018-01-11T05:31:02.915Z,18.33
2018-01-11T05:33:30.503Z,17.77
2018-01-11T05:35:58.133Z,16.60
2018-01-11T05:38:25.742Z,13.60
2018-01-11T05:41:00.697Z,13.80
2018-01-11T05:43:29.094Z,11.80
2018-01-11T05:45:56.706Z,11.20
2018-01-11T05:48:24.288Z,14.17
2018-01-11T05:50:52.654Z,12.40
2018-01-11T05:53:20.261Z,13.33
2018-01-11T05:55:47.847Z,14.70
2018-01-11T05:58:15.462Z,15.70
2018-01-11T06:00:43.819Z,16.17
2018-01-11T06:03:11.415Z,15.37
2018-01-11T06:05:39.000Z,14.90
2018-01-11T06:08:06.607Z,14.30
2018-01-11T06:10:34.416Z,14.17
2018-01-11T06:13:02.020Z,13.93
2018-01-11T06:15:29.647Z,12.97
2018-01-11T06:17:57.228Z,13.43
2018-01-11T06:20:30.261Z,12.70
2018-01-11T06:22:58.653Z,14.23
2018-01-11T06:25:26.254Z,14.40
2018-01-11T06:27:54.607Z,15.00
2018-01-11T06:30:22.189Z,14.63
2018-01-11T06:32:49.804Z,13.30
2018-01-11T06:35:18.174Z,14.30
2018-01-11T06:37:46.567Z,15.13
2018-01-11T06:40:14.934Z,13.60
2018-01-11T06:42:43.289Z,13.70
2018-01-11T06:45:10.882Z,15.27
2018-01-11T06:47:39.235Z,15.67
2018-01-11T06:50:06.852Z,18.23
2018-01-11T06:52:34.456Z,16.80
2018-01-11T06:55:02.078Z,15.80
2018-01-11T06:57:29.674Z,15.40
2018-01-11T06:59:57.290Z,15.30
2018-01-11T07:02:24.892Z,14.40
2018-01-11T07:04:52.484Z,14.73
2018-01-11T07:07:20.880Z,14.80
2018-01-11T07:09:48.504Z,14.70
2018-01-11T07:12:16.144Z,14.37
2018-01-11T07:14:43.773Z,12.67
2018-01-11T07:17:11.413Z,12.97
2018-01-11T07:19:39.783Z,14.80
2018-01-11T07:22:08.141Z,14.37
2018-01-11T07:24:36.509Z,12.60
2018-01-11T07:27:04.100Z,13.10
2018-01-11T07:29:31.712Z,13.80
2018-01-11T07:31:59.325Z,12.63
2018-01-11T07:34:27.692Z,14.20
2018-01-11T07:36:55.285Z,19.93
2018-01-11T07:39:22.899Z,26.33
2018-01-11T07:41:50.527Z,21.97
2018-01-11T07:44:18.127Z,18.60
2018-01-11T07:46:45.739Z,16.50
2018-01-11T07:49:13.339Z,17.17
2018-01-11T07:51:40.976Z,16.83
2018-01-11T07:54:08.596Z,16.53
2018-01-11T07:56:36.212Z,15.97
2018-01-11T07:59:03.833Z,15.90
2018-01-11T08:01:32.189Z,16.90
2018-01-11T08:03:59.803Z,15.97
2018-01-11T08:06:27.398Z,17.60
2018-01-11T08:08:55.011Z,18.87
2018-01-11T08:11:22.614Z,19.57
2018-01-11T08:13:50.209Z,18.20
2018-01-11T08:16:18.591Z,19.90
2018-01-11T08:18:46.944Z,16.50
2018-01-11T08:21:14.614Z,16.17
2018-01-11T08:23:42.199Z,15.13
2018-01-11T08:26:10.577Z,15.80
2018-01-11T08:28:38.948Z,14.70
2018-01-11T08:31:21.175Z,16.10
2018-01-11T08:33:48.788Z,15.17
2018-01-11T08:36:16.387Z,15.57
2018-01-11T08:38:44.786Z,16.80
2018-01-11T08:41:12.397Z,16.90
2018-01-11T08:43:39.999Z,16.13
2018-01-11T08:46:07.604Z,15.20
2018-01-11T08:48:35.193Z,16.87
2018-01-11T08:51:02.811Z,15.00
2018-01-11T08:53:30.426Z,15.30
2018-01-11T08:55:58.826Z,16.80
2018-01-11T08:58:26.451Z,15.40
2018-01-11T09:00:54.072Z,14.80
2018-01-11T09:03:21.671Z,16.70
2018-01-11T09:05:49.265Z,16.47
2018-01-11T09:08:16.882Z,15.40
2018-01-11T09:10:44.471Z,15.63
2018-01-11T09:13:12.865Z,16.80
2018-01-11T09:15:41.230Z,17.77
2018-01-11T09:18:09.586Z,19.13
2018-01-11T09:20:37.186Z,18.20
2018-01-11T09:23:04.788Z,17.20
2018-01-11T09:25:32.411Z,16.07
2018-01-11T09:28:00.016Z,16.33
2018-01-11T09:30:27.646Z,15.87
2018-01-11T09:32:55.249Z,15.50
2018-01-11T09:35:22.835Z,15.90
2018-01-11T09:37:51.203Z,15.97
2018-01-11T09:40:18.798Z,16.23
2018-01-11T09:42:46.408Z,16.00
2018-01-11T09:45:14.023Z,16.27
2018-01-11T09:47:41.632Z,15.73
2018-01-11T09:50:09.216Z,15.07
2018-01-11T09:52:36.814Z,16.97
2018-01-11T09:55:04.408Z,17.03
2018-01-11T09:57:31.992Z,17.73
2018-01-11T09:59:59.625Z,19.37
2018-01-11T10:02:27.209Z,18.50
2018-01-11T10:04:54.839Z,17.90
2018-01-11T10:07:22.419Z,17.90
2018-01-11T10:09:50.015Z,17.30
2018-01-11T10:12:22.048Z,17.50
2018-01-11T10:14:49.640Z,17.27
2018-01-11T10:17:18.009Z,18.13
2018-01-11T10:19:46.393Z,15.60
2018-01-11T10:22:14.001Z,15.70
2018-01-11T10:24:41.611Z,15.67
2018-01-11T10:27:09.204Z,15.33
2018-01-11T10:29:36.798Z,15.10
2018-01-11T10:32:04.404Z,14.77
2018-01-11T10:34:32.788Z,13.90
2018-01-11T10:37:00.390Z,14.57
2018-01-11T10:39:28.021Z,14.70
2018-01-11T10:41:57.368Z,14.00
2018-01-11T10:44:24.962Z,14.67
2018-01-11T10:46:52.557Z,15.20
2018-01-11T10:49:20.132Z,15.83
2018-01-11T10:51:47.759Z,14.23
2018-01-11T10:54:16.193Z,13.50
2018-01-11T10:56:43.784Z,13.63
2018-01-11T10:59:11.374Z,13.57
2018-01-11T11:01:44.749Z,13.07
2018-01-11T11:04:13.128Z,14.37
2018-01-11T11:06:41.498Z,12.20
2018-01-11T11:09:09.106Z,13.07
2018-01-11T11:11:36.695Z,13.00
2018-01-11T11:14:04.295Z,13.40
2018-01-11T11:16:32.658Z,12.40
2018-01-11T11:19:00.282Z,11.37
2018-01-11T11:21:27.870Z,11.97
2018-01-11T11:23:55.457Z,12.07
2018-01-11T11:26:23.826Z,11.60
2018-01-11T11:28:51.418Z,11.87
2018-01-11T11:31:19.025Z,12.80
2018-01-11T11:33:46.620Z,14.70
2018-01-11T11:36:15.003Z,16.43
2018-01-11T11:38:43.354Z,17.20
2018-01-11T11:41:10.959Z,15.23
2018-01-11T11:43:38.544Z,15.40
2018-01-11T11:46:06.137Z,15.80
2018-01-11T11:48:33.736Z,14.70
2018-01-11T11:51:09.418Z,13.83
2018-01-11T11:53:37.036Z,15.03
2018-01-11T11:56:05.388Z,13.77
2018-01-11T11:58:33.039Z,13.60
2018-01-11T12:01:00.612Z,15.67
2018-01-11T12:03:28.205Z,14.43
2018-01-11T12:05:56.576Z,15.30
2018-01-11T12:08:24.176Z,15.43
2018-01-11T12:10:51.809Z,13.30
2018-01-11T12:13:20.164Z,13.00
2018-01-11T12:15:47.768Z,13.77
2018-01-11T12:18:15.392Z,14.23
2018-01-11T12:20:43.817Z,12.77
2018-01-11T12:23:11.449Z,13.37
2018-01-11T12:25:39.816Z,13.53
2018-01-11T12:28:08.217Z,13.87
2018-01-11T12:30:36.618Z,13.27
2018-01-11T12:33:04.200Z,14.27
2018-01-11T12:35:31.804Z,15.37
2018-01-11T12:38:00.153Z,15.87
2018-01-11T12:40:27.757Z,16.00
2018-01-11T12:42:55.363Z,16.30
2018-01-11T12:45:22.994Z,16.70
2018-01-11T12:47:50.584Z,17.90
2018-01-11T12:50:18.189Z,17.47
2018-01-11T12:52:46.548Z,18.77
2018-01-11T12:55:14.128Z,19.20
2018-01-11T12:57:42.505Z,19.47
2018-01-11T13:00:10.910Z,18.70
2018-01-11T13:02:38.544Z,18.23
2018-01-11T13:05:06.911Z,17.87
2018-01-11T13:07:34.511Z,18.03
2018-01-11T13:10:02.121Z,19.20
2018-01-11T13:12:29.708Z,18.37
2018-01-11T13:14:58.111Z,18.37
2018-01-11T13:17:25.683Z,17.40
2018-01-11T13:19:53.276Z,16.80
2018-01-11T13:22:20.941Z,16.53
2018-01-11T13:24:48.507Z,16.27
2018-01-11T13:27:16.121Z,13.83
2018-01-11T13:29:43.714Z,13.53
2018-01-11T13:32:11.343Z,13.27
2018-01-11T13:34:38.928Z,12.93
2018-01-11T13:37:06.506Z,11.43
2018-01-11T13:39:34.126Z,10.20
2018-01-11T13:42:01.710Z,11.30
2018-01-11T13:44:29.317Z,10.23
2018-01-11T13:46:56.909Z,6.57
2018-01-11T13:49:24.514Z,7.53
2018-01-11T13:51:52.113Z,7.07
2018-01-11T13:54:20.478Z,4.90
2018-01-11T13:56:48.074Z,6.10
2018-01-11T13:59:15.681Z,5.83
2018-01-11T14:01:43.281Z,5.77
2018-01-11T14:04:11.621Z,7.13
2018-01-11T14:06:39.242Z,5.07
2018-01-11T14:09:06.827Z,4.70
2018-01-11T14:11:34.411Z,6.33
2018-01-11T14:14:02.004Z,6.87
2018-01-11T14:16:30.363Z,10.30
2018-01-11T14:18:58.746Z,11.40
2018-01-11T14:21:27.102Z,12.77
2018-01-11T14:23:54.723Z,12.83
2018-01-11T14:26:22.318Z,13.23
2018-01-11T14:28:49.919Z,14.60
2018-01-11T14:31:20.221Z,13.90
2018-01-11T14:33:47.822Z,14.97
2018-01-11T14:36:15.432Z,14.23
2018-01-11T14:38:43.079Z,14.40
2018-01-11T14:41:10.732Z,14.53
2018-01-11T14:43:38.326Z,13.87
2018-01-11T14:46:05.901Z,10.20
2018-01-11T14:48:34.313Z,9.83
2018-01-11T14:51:01.918Z,9.47
2018-01-11T14:53:29.507Z,8.70
2018-01-11T14:55:57.858Z,8.13
2018-01-11T14:58:29.344Z,8.40
2018-01-11T15:00:57.695Z,10.07
2018-01-11T15:03:25.274Z,9.20
2018-01-11T15:05:53.630Z,7.83
2018-01-11T15:08:21.212Z,6.20
2018-01-11T15:10:49.631Z,5.10
2018-01-11T15:13:17.205Z,4.80
2018-01-11T15:15:44.819Z,5.87
2018-01-11T15:18:13.160Z,5.67
2018-01-11T15:20:40.743Z,6.90
2018-01-11T15:23:08.333Z,6.73
2018-01-11T15:25:35.941Z,7.03
2018-01-11T15:28:03.541Z,8.63
2018-01-11T15:30:31.888Z,7.27
2018-01-11T15:32:59.481Z,8.60
2018-01-11T15:35:27.828Z,9.30
2018-01-11T15:37:55.418Z,9.30
2018-01-11T15:40:23.803Z,11.93
2018-01-11T15:42:52.153Z,10.97
2018-01-11T15:45:27.389Z,10.40
2018-01-11T15:47:54.967Z,10.80
2018-01-11T15:50:22.586Z,11.60
2018-01-11T15:52:50.175Z,10.60
2018-01-11T15:55:17.781Z,10.80
2018-01-11T15:57:46.139Z,11.40
2018-01-11T16:00:14.492Z,12.50
2018-01-11T16:02:42.113Z,14.00
2018-01-11T16:05:09.727Z,13.00
2018-01-11T16:07:37.362Z,13.23
2018-01-11T16:10:04.946Z,13.47
2018-01-11T16:12:34.062Z,14.93
2018-01-11T16:15:02.422Z,14.30
2018-01-11T16:17:30.063Z,16.10
2018-01-11T16:19:57.688Z,17.13
2018-01-11T16:22:25.379Z,16.80
2018-01-11T16:24:53.038Z,18.30
2018-01-11T16:27:20.620Z,18.80
2018-01-11T16:29:48.229Z,18.97
2018-01-11T16:32:16.581Z,20.67
2018-01-11T16:34:49.936Z,23.70
2018-01-11T16:37:17.555Z,21.00
2018-01-11T16:39:45.929Z,19.60
2018-01-11T16:42:14.322Z,19.70
2018-01-11T16:44:41.966Z,18.53
2018-01-11T16:47:09.553Z,19.47
2018-01-11T16:49:37.167Z,19.43
2018-01-11T16:52:04.780Z,18.57
2018-01-11T16:54:36.184Z,19.20
2018-01-11T16:57:03.804Z,19.77
2018-01-11T16:59:31.452Z,20.40
2018-01-11T17:01:59.103Z,19.73
2018-01-11T17:04:27.456Z,20.03
2018-01-11T17:06:55.061Z,21.00
2018-01-11T17:09:22.648Z,22.03
2018-01-11T17:11:50.284Z,22.00
2018-01-11T17:14:17.873Z,20.33
2018-01-11T17:16:47.151Z,21.90
2018-01-11T17:19:14.758Z,19.67
2018-01-11T17:21:42.357Z,20.20
2018-01-11T17:24:09.986Z,21.70
2018-01-11T17:26:37.606Z,19.40
2018-01-11T17:29:05.233Z,22.80
2018-01-11T17:31:34.550Z,23.10
2018-01-11T17:34:02.510Z,24.13
2018-01-11T17:36:31.824Z,20.83
2018-01-11T17:38:59.442Z,21.90
2018-01-11T17:41:27.989Z,25.97
2018-01-11T17:43:55.572Z,23.37
2018-01-11T17:46:23.186Z,21.83
2018-01-11T17:48:50.808Z,23.97
2018-01-11T17:51:21.662Z,23.93
2018-01-11T17:53:50.034Z,24.00
2018-01-11T17:56:17.617Z,26.13
2018-01-11T17:58:45.965Z,24.00
2018-01-11T18:01:13.546Z,25.13
2018-01-11T18:03:41.930Z,24.57
2018-01-11T18:06:10.293Z,25.00
2018-01-11T18:08:37.912Z,24.87
2018-01-11T18:11:05.510Z,24.30
2018-01-11T18:13:33.103Z,24.70
2018-01-11T18:16:01.575Z,24.80
2018-01-11T18:18:29.175Z,25.20
2018-01-11T18:20:57.456Z,25.97
2018-01-11T18:23:25.058Z,24.20
2018-01-11T18:25:52.673Z,24.37
2018-01-11T18:28:20.256Z,25.20
2018-01-11T18:30:49.296Z,26.00
2018-01-11T18:33:17.134Z,26.50
2018-01-11T18:35:44.702Z,30.50
2018-01-11T18:38:12.304Z,25.90
2018-01-11T18:40:39.880Z,26.03
2018-01-11T18:43:07.515Z,25.67
2018-01-11T18:45:35.115Z,24.50
2018-01-11T18:48:02.693Z,26.30
2018-01-11T18:50:30.300Z,25.67
2018-01-11T18:52:58.651Z,26.40
2018-01-11T18:55:26.288Z,25.87
2018-01-11T18:57:53.898Z,26.17
2018-01-11T19:00:21.513Z,27.00
2018-01-11T19:02:49.098Z,29.00
2018-01-11T19:05:16.711Z,26.60
2018-01-11T19:07:44.295Z,26.50
2018-01-11T19:10:11.893Z,28.23
2018-01-11T19:12:39.530Z,27.67
2018-01-11T19:15:07.128Z,27.20
2018-01-11T19:17:35.525Z,27.43
2018-01-11T19:20:03.130Z,26.63
2018-01-11T19:22:30.739Z,28.70
2018-01-11T19:24:59.101Z,28.40
2018-01-11T19:27:26.694Z,27.03
2018-01-11T19:29:54.314Z,26.70
2018-01-11T19:32:21.914Z,26.83
2018-01-11T19:34:50.306Z,25.60
2018-01-11T19:37:17.894Z,27.67
2018-01-11T19:39:45.496Z,27.03
2018-01-11T19:42:13.860Z,26.80
2018-01-11T19:44:41.444Z,26.40
2018-01-11T19:47:09.816Z,28.27
2018-01-11T19:49:38.181Z,25.67
2018-01-11T19:52:05.791Z,30.17
2018-01-11T19:54:33.416Z,26.23
2018-01-11T19:57:01.773Z,40.13
2018-01-11T19:59:29.378Z,25.43
2018-01-11T20:01:56.982Z,26.57
2018-01-11T20:04:24.614Z,53.97
2018-01-11T20:06:52.209Z,24.67
2018-01-11T20:09:19.849Z,25.60
2018-01-11T20:11:47.441Z,28.10
2018-01-11T20:14:15.046Z,23.13
2018-01-11T20:16:42.649Z,25.87
2018-01-11T20:19:10.242Z,24.00
2018-01-11T20:21:37.854Z,31.00
2018-01-11T20:24:05.451Z,30.20
2018-01-11T20:26:33.083Z,48.87
2018-01-11T20:29:00.670Z,61.27
2018-01-11T20:31:28.318Z,31.70
2018-01-11T20:33:55.928Z,64.47
2018-01-11T20:36:24.294Z,25.43
2018-01-11T20:38:52.685Z,26.17
2018-01-11T20:41:21.040Z,26.83
2018-01-11T20:43:48.652Z,33.60
2018-01-11T20:46:16.248Z,65.03
2018-01-11T20:48:43.848Z,46.57
2018-01-11T20:51:12.206Z,41.73
2018-01-11T20:53:39.812Z,78.80
2018-01-11T20:56:15.814Z,28.10
2018-01-11T20:58:43.397Z,49.60
2018-01-11T21:01:11.781Z,25.90
2018-01-11T21:03:40.140Z,34.20
2018-01-11T21:06:07.761Z,23.57
2018-01-11T21:08:35.370Z,24.10
2018-01-11T21:11:05.994Z,23.10
2018-01-11T21:13:33.723Z,22.10
2018-01-11T21:16:01.319Z,22.03
2018-01-11T21:18:28.948Z,24.43
2018-01-11T21:20:56.535Z,23.37
2018-01-11T21:23:31.250Z,32.97
2018-01-11T21:26:06.008Z,44.60
2018-01-11T21:28:52.220Z,26.90
2018-01-11T21:34:31.777Z,33.53
2018-01-11T21:37:00.186Z,23.57
2018-01-11T21:39:27.799Z,24.30
2018-01-11T21:41:55.383Z,69.97
2018-01-11T21:44:23.752Z,87.83
2018-01-11T21:46:51.358Z,28.37
2018-01-11T21:49:18.974Z,42.47
2018-01-11T21:51:46.569Z,25.70
2018-01-11T21:54:14.692Z,33.47
2018-01-11T21:56:42.272Z,26.73
2018-01-11T21:59:09.855Z,21.27
2018-01-11T22:01:37.447Z,34.10
2018-01-11T22:04:05.112Z,25.33
2018-01-11T22:06:32.693Z,22.13
2018-01-11T22:09:00.291Z,23.63
2018-01-11T22:11:28.672Z,23.07
2018-01-11T22:13:57.022Z,35.97
2018-01-11T22:16:24.624Z,21.60
2018-01-11T22:18:52.219Z,21.27
2018-01-11T22:21:19.796Z,21.10
2018-01-11T22:23:47.367Z,18.93
2018-01-11T22:26:14.958Z,33.80
2018-01-11T22:28:43.318Z,18.70
2018-01-11T22:31:10.913Z,36.87
2018-01-11T22:33:38.567Z,40.00
2018-01-11T22:36:06.171Z,24.40
2018-01-11T22:38:33.752Z,21.57
2018-01-11T22:41:01.375Z,20.50
2018-01-11T22:43:28.971Z,18.80
2018-01-11T22:45:56.556Z,21.07
2018-01-11T22:48:24.906Z,21.63
2018-01-11T22:50:52.542Z,19.40
2018-01-11T22:53:20.134Z,20.00
2018-01-11T22:55:47.736Z,20.93
2018-01-11T22:58:15.354Z,19.70
2018-01-11T23:00:42.974Z,22.00
2018-01-11T23:03:10.564Z,19.30
2018-01-11T23:05:38.160Z,19.87
2018-01-11T23:08:06.562Z,19.93
2018-01-11T23:10:34.151Z,20.03
2018-01-11T23:16:12.432Z,19.20
2018-01-11T23:18:40.812Z,20.77
2018-01-11T23:21:09.223Z,20.73
2018-01-11T23:23:36.807Z,22.67
2018-01-11T23:26:05.177Z,21.90
2018-01-11T23:28:32.767Z,21.43
2018-01-11T23:31:00.390Z,21.47
2018-01-11T23:33:28.007Z,21.00
2018-01-11T23:35:55.634Z,20.83
2018-01-11T23:38:23.219Z,21.77
2018-01-11T23:40:50.815Z,21.70
2018-01-11T23:43:19.179Z,20.70
2018-01-11T23:45:47.551Z,20.17
2018-01-11T23:48:15.178Z,21.20
2018-01-11T23:50:46.550Z,21.37
2018-01-11T23:53:14.188Z,21.03
2018-01-11T23:55:41.803Z,21.90
2018-01-11T23:58:10.144Z,18.03
